sensor_id;sensor_type;location;lat;lon;timestamp;P1;durP1;ratioP1;P2;durP2;ratioP2
38312;SDS011;24114;52.260;6.714;2023-09-19T15:40:17;1.40;;;0.20;;
38312;SDS011;24114;52.260;6.714;2023-09-19T15:42:45;2.17;;;0.20;;
38312;SDS011;24114;52.260;6.714;2023-09-19T15:45:13;1.65;;;0.10;;
38312;SDS011;24114;52.260;6.714;2023-09-19T15:47:41;3.33;;;0.20;;
38312;SDS011;24114;52.260;6.714;2023-09-19T15:50:10;1.10;;;0.17;;
38312;SDS011;24114;52.260;6.714;2023-09-19T15:52:40;1.90;;;0.20;;
38312;SDS011;24114;52.260;6.714;2023-09-19T15:55:08;1.98;;;0.20;;
38312;SDS011;24114;52.260;6.714;2023-09-19T15:57:39;1.30;;;0.20;;
38312;SDS011;24114;52.260;6.714;2023-09-19T16:01:52;1.20;;;0.10;;
38312;SDS011;24114;52.260;6.714;2023-09-19T16:04:20;2.28;;;0.20;;
38312;SDS011;24114;52.260;6.714;2023-09-19T16:06:48;2.10;;;0.20;;
38312;SDS011;24114;52.260;6.714;2023-09-19T16:09:16;2.17;;;0.10;;
38312;SDS011;24114;52.260;6.714;2023-09-19T16:11:44;2.30;;;0.20;;
38312;SDS011;24114;52.260;6.714;2023-09-19T16:14:12;1.73;;;0.17;;
38312;SDS011;24114;52.260;6.714;2023-09-19T16:16:43;2.65;;;0.20;;
38312;SDS011;24114;52.260;6.714;2023-09-19T16:21:03;1.67;;;0.30;;
38312;SDS011;24114;52.260;6.714;2023-09-19T16:23:31;1.70;;;0.10;;
38312;SDS011;24114;52.260;6.714;2023-09-19T16:26:03;4.90;;;0.20;;
38312;SDS011;24114;52.260;6.714;2023-09-19T16:28:32;1.95;;;0.10;;
38312;SDS011;24114;52.260;6.714;2023-09-19T16:31:02;2.17;;;0.20;;
38312;SDS011;24114;52.260;6.714;2023-09-19T16:33:31;3.20;;;0.40;;
38312;SDS011;24114;52.260;6.714;2023-09-19T16:35:59;1.83;;;0.15;;
38312;SDS011;24114;52.260;6.714;2023-09-19T16:38:29;2.60;;;0.20;;
38312;SDS011;24114;52.260;6.714;2023-09-19T16:40:57;2.33;;;0.30;;
38312;SDS011;24114;52.260;6.714;2023-09-19T16:43:26;1.17;;;0.20;;
38312;SDS011;24114;52.260;6.714;2023-09-19T16:45:54;1.38;;;0.20;;
38312;SDS011;24114;52.260;6.714;2023-09-19T16:48:22;2.75;;;0.25;;
38312;SDS011;24114;52.260;6.714;2023-09-19T16:50:52;2.40;;;0.40;;
38312;SDS011;24114;52.260;6.714;2023-09-19T16:53:21;2.28;;;0.30;;
38312;SDS011;24114;52.260;6.714;2023-09-19T16:55:50;2.15;;;0.30;;
38312;SDS011;24114;52.260;6.714;2023-09-19T16:58:18;2.75;;;0.10;;
38312;SDS011;24114;52.260;6.714;2023-09-19T17:00:46;2.27;;;0.30;;
38312;SDS011;24114;52.260;6.714;2023-09-19T17:03:14;1.50;;;0.20;;
38312;SDS011;24114;52.260;6.714;2023-09-19T17:05:42;1.40;;;0.20;;
38312;SDS011;24114;52.260;6.714;2023-09-19T17:08:13;2.83;;;0.13;;
38312;SDS011;24114;52.260;6.714;2023-09-19T17:10:41;1.65;;;0.10;;
38312;SDS011;24114;52.260;6.714;2023-09-19T17:13:12;1.35;;;0.10;;
38312;SDS011;24114;52.260;6.714;2023-09-19T17:15:40;1.60;;;0.10;;
38312;SDS011;24114;52.260;6.714;2023-09-19T17:18:08;3.35;;;0.45;;
38312;SDS011;24114;52.260;6.714;2023-09-19T17:20:40;1.70;;;0.10;;
38312;SDS011;24114;52.260;6.714;2023-09-19T17:23:08;1.60;;;0.20;;
38312;SDS011;24114;52.260;6.714;2023-09-19T17:25:36;1.52;;;0.10;;
38312;SDS011;24114;52.260;6.714;2023-09-19T17:28:04;2.25;;;0.20;;
38312;SDS011;24114;52.260;6.714;2023-09-19T17:30:33;2.00;;;0.20;;
38312;SDS011;24114;52.260;6.714;2023-09-19T17:33:05;1.30;;;0.15;;
38312;SDS011;24114;52.260;6.714;2023-09-19T17:35:33;3.72;;;0.40;;
38312;SDS011;24114;52.260;6.714;2023-09-19T17:38:01;1.58;;;0.15;;
38312;SDS011;24114;52.260;6.714;2023-09-19T17:40:29;2.42;;;0.20;;
38312;SDS011;24114;52.260;6.714;2023-09-19T17:42:57;1.95;;;0.10;;
38312;SDS011;24114;52.260;6.714;2023-09-19T17:45:27;2.00;;;0.20;;
38312;SDS011;24114;52.260;6.714;2023-09-19T17:47:56;1.92;;;0.20;;
38312;SDS011;24114;52.260;6.714;2023-09-19T17:50:25;1.98;;;0.30;;
38312;SDS011;24114;52.260;6.714;2023-09-19T17:52:53;2.00;;;0.30;;
38312;SDS011;24114;52.260;6.714;2023-09-19T17:55:20;2.33;;;0.20;;
38312;SDS011;24114;52.260;6.714;2023-09-19T17:57:48;1.90;;;0.10;;
38312;SDS011;24114;52.260;6.714;2023-09-19T18:00:19;1.85;;;0.40;;
38312;SDS011;24114;52.260;6.714;2023-09-19T18:02:48;2.85;;;0.30;;
38312;SDS011;24114;52.260;6.714;2023-09-19T18:05:17;1.65;;;0.10;;
38312;SDS011;24114;52.260;6.714;2023-09-19T18:07:47;2.53;;;0.20;;
38312;SDS011;24114;52.260;6.714;2023-09-19T18:10:16;1.20;;;0.20;;
38312;SDS011;24114;52.260;6.714;2023-09-19T18:12:44;2.70;;;0.25;;
38312;SDS011;24114;52.260;6.714;2023-09-19T18:15:13;1.48;;;0.30;;
38312;SDS011;24114;52.260;6.714;2023-09-19T18:17:41;2.75;;;0.20;;
38312;SDS011;24114;52.260;6.714;2023-09-19T18:20:09;1.65;;;0.13;;
38312;SDS011;24114;52.260;6.714;2023-09-19T18:22:39;1.98;;;0.22;;
38312;SDS011;24114;52.260;6.714;2023-09-19T18:25:07;1.80;;;0.40;;
38312;SDS011;24114;52.260;6.714;2023-09-19T18:27:35;3.60;;;0.55;;
38312;SDS011;24114;52.260;6.714;2023-09-19T18:30:04;2.75;;;0.47;;
38312;SDS011;24114;52.260;6.714;2023-09-19T18:32:33;2.38;;;0.22;;
38312;SDS011;24114;52.260;6.714;2023-09-19T18:35:01;3.17;;;0.40;;
38312;SDS011;24114;52.260;6.714;2023-09-19T18:37:30;2.88;;;0.40;;
38312;SDS011;24114;52.260;6.714;2023-09-19T18:39:59;1.77;;;0.20;;
38312;SDS011;24114;52.260;6.714;2023-09-19T18:42:27;2.70;;;0.30;;
38312;SDS011;24114;52.260;6.714;2023-09-19T18:44:55;1.77;;;0.35;;
38312;SDS011;24114;52.260;6.714;2023-09-19T18:47:24;2.85;;;0.40;;
38312;SDS011;24114;52.260;6.714;2023-09-19T18:49:54;4.05;;;0.32;;
38312;SDS011;24114;52.260;6.714;2023-09-19T18:52:22;2.58;;;0.10;;
38312;SDS011;24114;52.260;6.714;2023-09-19T18:54:50;1.63;;;0.10;;
38312;SDS011;24114;52.260;6.714;2023-09-19T18:57:21;1.98;;;0.50;;
38312;SDS011;24114;52.260;6.714;2023-09-19T18:59:49;2.67;;;0.60;;
38312;SDS011;24114;52.260;6.714;2023-09-19T19:02:17;2.83;;;0.40;;
38312;SDS011;24114;52.260;6.714;2023-09-19T19:04:46;2.25;;;0.30;;
38312;SDS011;24114;52.260;6.714;2023-09-19T19:07:14;3.05;;;0.50;;
38312;SDS011;24114;52.260;6.714;2023-09-19T19:09:45;2.70;;;0.50;;
38312;SDS011;24114;52.260;6.714;2023-09-19T19:12:13;2.90;;;0.50;;
38312;SDS011;24114;52.260;6.714;2023-09-19T19:14:42;2.22;;;0.30;;
38312;SDS011;24114;52.260;6.714;2023-09-19T19:17:11;2.60;;;0.37;;
38312;SDS011;24114;52.260;6.714;2023-09-19T19:19:40;1.97;;;0.20;;
38312;SDS011;24114;52.260;6.714;2023-09-19T19:22:08;4.50;;;0.60;;
38312;SDS011;24114;52.260;6.714;2023-09-19T19:24:37;2.22;;;0.60;;
38312;SDS011;24114;52.260;6.714;2023-09-19T19:27:04;3.35;;;0.47;;
38312;SDS011;24114;52.260;6.714;2023-09-19T19:29:33;4.90;;;0.30;;
38312;SDS011;24114;52.260;6.714;2023-09-19T19:32:03;2.72;;;0.40;;
38312;SDS011;24114;52.260;6.714;2023-09-19T19:34:33;2.40;;;0.30;;
38312;SDS011;24114;52.260;6.714;2023-09-19T19:37:01;2.28;;;0.40;;
38312;SDS011;24114;52.260;6.714;2023-09-19T19:39:31;2.08;;;0.40;;
38312;SDS011;24114;52.260;6.714;2023-09-19T19:42:01;1.63;;;0.40;;
38312;SDS011;24114;52.260;6.714;2023-09-19T19:44:29;2.40;;;0.40;;
38312;SDS011;24114;52.260;6.714;2023-09-19T19:46:57;2.87;;;0.40;;
38312;SDS011;24114;52.260;6.714;2023-09-19T19:49:26;2.72;;;0.40;;
38312;SDS011;24114;52.260;6.714;2023-09-19T19:51:54;4.18;;;0.55;;
38312;SDS011;24114;52.260;6.714;2023-09-19T19:54:22;4.25;;;0.55;;
38312;SDS011;24114;52.260;6.714;2023-09-19T19:56:50;2.17;;;0.32;;
38312;SDS011;24114;52.260;6.714;2023-09-19T19:59:18;2.05;;;0.50;;
38312;SDS011;24114;52.260;6.714;2023-09-19T20:01:46;3.63;;;0.68;;
38312;SDS011;24114;52.260;6.714;2023-09-19T20:04:14;2.78;;;0.70;;
38312;SDS011;24114;52.260;6.714;2023-09-19T20:06:44;2.72;;;0.38;;
38312;SDS011;24114;52.260;6.714;2023-09-19T20:09:12;3.20;;;0.40;;
38312;SDS011;24114;52.260;6.714;2023-09-19T20:11:40;3.30;;;0.57;;
38312;SDS011;24114;52.260;6.714;2023-09-19T20:14:08;1.73;;;0.38;;
38312;SDS011;24114;52.260;6.714;2023-09-19T20:16:38;6.68;;;0.57;;
38312;SDS011;24114;52.260;6.714;2023-09-19T20:19:07;1.67;;;0.40;;
38312;SDS011;24114;52.260;6.714;2023-09-19T20:21:35;3.17;;;0.40;;
38312;SDS011;24114;52.260;6.714;2023-09-19T20:24:08;2.77;;;0.43;;
38312;SDS011;24114;52.260;6.714;2023-09-19T20:26:39;3.20;;;0.53;;
38312;SDS011;24114;52.260;6.714;2023-09-19T20:29:07;2.53;;;0.38;;
38312;SDS011;24114;52.260;6.714;2023-09-19T20:31:36;1.92;;;0.50;;
38312;SDS011;24114;52.260;6.714;2023-09-19T20:34:04;2.75;;;0.60;;
38312;SDS011;24114;52.260;6.714;2023-09-19T20:36:33;3.25;;;0.70;;
38312;SDS011;24114;52.260;6.714;2023-09-19T20:39:08;3.22;;;0.60;;
38312;SDS011;24114;52.260;6.714;2023-09-19T20:41:37;2.75;;;0.52;;
38312;SDS011;24114;52.260;6.714;2023-09-19T20:44:05;3.33;;;0.40;;
38312;SDS011;24114;52.260;6.714;2023-09-19T20:46:34;2.33;;;0.40;;
38312;SDS011;24114;52.260;6.714;2023-09-19T20:49:05;2.67;;;0.28;;
38312;SDS011;24114;52.260;6.714;2023-09-19T20:51:34;3.80;;;0.50;;
38312;SDS011;24114;52.260;6.714;2023-09-19T20:54:05;3.78;;;0.40;;
38312;SDS011;24114;52.260;6.714;2023-09-19T20:56:35;2.63;;;0.60;;
38312;SDS011;24114;52.260;6.714;2023-09-19T20:59:04;4.10;;;0.53;;
38312;SDS011;24114;52.260;6.714;2023-09-19T21:01:32;1.98;;;0.40;;
38312;SDS011;24114;52.260;6.714;2023-09-19T21:04:01;3.30;;;0.50;;
38312;SDS011;24114;52.260;6.714;2023-09-19T21:06:30;3.03;;;0.47;;
38312;SDS011;24114;52.260;6.714;2023-09-19T21:08:58;2.00;;;0.40;;
38312;SDS011;24114;52.260;6.714;2023-09-19T21:11:26;2.75;;;0.35;;
38312;SDS011;24114;52.260;6.714;2023-09-19T21:13:56;3.03;;;0.60;;
38312;SDS011;24114;52.260;6.714;2023-09-19T21:16:23;1.83;;;0.33;;
38312;SDS011;24114;52.260;6.714;2023-09-19T21:18:52;2.10;;;0.30;;
38312;SDS011;24114;52.260;6.714;2023-09-19T21:21:19;2.33;;;0.38;;
38312;SDS011;24114;52.260;6.714;2023-09-19T21:23:48;3.33;;;0.73;;
38312;SDS011;24114;52.260;6.714;2023-09-19T21:26:15;3.47;;;0.57;;
38312;SDS011;24114;52.260;6.714;2023-09-19T21:28:45;3.58;;;0.60;;
38312;SDS011;24114;52.260;6.714;2023-09-19T21:31:15;2.45;;;0.40;;
38312;SDS011;24114;52.260;6.714;2023-09-19T21:33:43;5.25;;;0.70;;
38312;SDS011;24114;52.260;6.714;2023-09-19T21:36:12;1.98;;;0.60;;
38312;SDS011;24114;52.260;6.714;2023-09-19T21:38:47;1.80;;;0.47;;
38312;SDS011;24114;52.260;6.714;2023-09-19T21:41:16;2.75;;;0.63;;
38312;SDS011;24114;52.260;6.714;2023-09-19T21:43:45;3.80;;;0.77;;
38312;SDS011;24114;52.260;6.714;2023-09-19T21:46:17;3.05;;;0.43;;
38312;SDS011;24114;52.260;6.714;2023-09-19T21:48:46;2.78;;;0.68;;
38312;SDS011;24114;52.260;6.714;2023-09-19T21:51:15;4.43;;;0.63;;
38312;SDS011;24114;52.260;6.714;2023-09-19T21:53:43;4.22;;;0.60;;
38312;SDS011;24114;52.260;6.714;2023-09-19T21:56:10;4.70;;;0.68;;
38312;SDS011;24114;52.260;6.714;2023-09-19T21:58:40;2.47;;;0.55;;
38312;SDS011;24114;52.260;6.714;2023-09-19T22:01:09;2.27;;;0.40;;
38312;SDS011;24114;52.260;6.714;2023-09-19T22:03:38;3.08;;;0.63;;
38312;SDS011;24114;52.260;6.714;2023-09-19T22:06:08;3.47;;;0.77;;
38312;SDS011;24114;52.260;6.714;2023-09-19T22:08:36;2.60;;;0.40;;
38312;SDS011;24114;52.260;6.714;2023-09-19T22:11:05;2.65;;;0.47;;
38312;SDS011;24114;52.260;6.714;2023-09-19T22:13:35;1.67;;;0.52;;
38312;SDS011;24114;52.260;6.714;2023-09-19T22:16:06;4.18;;;0.50;;
38312;SDS011;24114;52.260;6.714;2023-09-19T22:18:34;1.65;;;0.50;;
38312;SDS011;24114;52.260;6.714;2023-09-19T22:21:04;4.35;;;0.57;;
38312;SDS011;24114;52.260;6.714;2023-09-19T22:23:37;2.30;;;0.30;;
38312;SDS011;24114;52.260;6.714;2023-09-19T22:26:08;2.88;;;0.70;;
38312;SDS011;24114;52.260;6.714;2023-09-19T22:28:39;4.30;;;0.60;;
38312;SDS011;24114;52.260;6.714;2023-09-19T22:31:12;3.20;;;0.50;;
38312;SDS011;24114;52.260;6.714;2023-09-19T22:33:42;1.75;;;0.45;;
38312;SDS011;24114;52.260;6.714;2023-09-19T22:36:11;3.50;;;0.50;;
38312;SDS011;24114;52.260;6.714;2023-09-19T22:38:40;2.70;;;0.50;;
38312;SDS011;24114;52.260;6.714;2023-09-19T22:41:08;2.97;;;0.73;;
38312;SDS011;24114;52.260;6.714;2023-09-19T22:43:38;4.40;;;0.50;;
38312;SDS011;24114;52.260;6.714;2023-09-19T22:46:12;3.53;;;0.40;;
38312;SDS011;24114;52.260;6.714;2023-09-19T22:48:41;3.45;;;0.85;;
38312;SDS011;24114;52.260;6.714;2023-09-19T22:51:09;4.57;;;0.75;;
38312;SDS011;24114;52.260;6.714;2023-09-19T22:53:48;3.70;;;0.70;;
38312;SDS011;24114;52.260;6.714;2023-09-19T22:56:18;4.00;;;0.70;;
38312;SDS011;24114;52.260;6.714;2023-09-19T22:58:48;3.00;;;0.47;;
38312;SDS011;24114;52.260;6.714;2023-09-19T23:01:17;3.72;;;0.50;;
38312;SDS011;24114;52.260;6.714;2023-09-19T23:03:54;3.95;;;0.80;;
38312;SDS011;24114;52.260;6.714;2023-09-19T23:06:41;2.65;;;0.63;;
38312;SDS011;24114;52.260;6.714;2023-09-19T23:09:15;3.47;;;1.00;;
38312;SDS011;24114;52.260;6.714;2023-09-19T23:11:48;3.47;;;0.70;;
38312;SDS011;24114;52.260;6.714;2023-09-19T23:14:20;3.35;;;0.50;;
38312;SDS011;24114;52.260;6.714;2023-09-19T23:16:51;3.28;;;0.73;;
38312;SDS011;24114;52.260;6.714;2023-09-19T23:19:23;4.82;;;0.82;;
38312;SDS011;24114;52.260;6.714;2023-09-19T23:21:56;3.03;;;0.50;;
38312;SDS011;24114;52.260;6.714;2023-09-19T23:24:33;3.90;;;0.57;;
38312;SDS011;24114;52.260;6.714;2023-09-19T23:27:04;3.00;;;0.70;;
38312;SDS011;24114;52.260;6.714;2023-09-19T23:29:40;2.28;;;0.43;;
38312;SDS011;24114;52.260;6.714;2023-09-19T23:32:08;3.63;;;0.60;;
38312;SDS011;24114;52.260;6.714;2023-09-19T23:34:41;3.15;;;0.60;;
38312;SDS011;24114;52.260;6.714;2023-09-19T23:37:09;3.85;;;0.65;;
38312;SDS011;24114;52.260;6.714;2023-09-19T23:39:39;2.50;;;0.55;;
38312;SDS011;24114;52.260;6.714;2023-09-19T23:42:07;4.10;;;0.93;;
38312;SDS011;24114;52.260;6.714;2023-09-19T23:44:37;2.28;;;0.50;;
38312;SDS011;24114;52.260;6.714;2023-09-19T23:47:07;3.63;;;0.55;;
38312;SDS011;24114;52.260;6.714;2023-09-19T23:49:37;3.80;;;0.87;;
38312;SDS011;24114;52.260;6.714;2023-09-19T23:52:06;3.95;;;0.68;;
38312;SDS011;24114;52.260;6.714;2023-09-19T23:54:35;2.78;;;0.68;;
38312;SDS011;24114;52.260;6.714;2023-09-19T23:57:08;5.63;;;0.60;;
38312;SDS011;24114;52.260;6.714;2023-09-19T23:59:37;4.60;;;0.90;;
